• Join FlightAware (Why Join?)
  • Login
  • US Flag 
03:30PM EDT


 

Airport Tracker/Info


-or-


 

Live Flight TrackerFlight Track Log ✈ AWI3767 ✈ 01-Jul-2013 ✈ KDCA - KAGS

Flight Track Log - Related Links

Times and Time Zones

All times are in EDT time to prevent confusion due to time zone crossing. See the AWI3767 flight status page for this flight to view local times or setup timezone preferences in your user account.

Time Position Orientation Groundspeed Altitude Reporting Facility
EDT Latitude Longitude Course Direction KTS MPH feet Rate Location/Type
05:11PM 38.8333 -77.0333 225° Southwest 149 171 900  Level Potomac TRACON
05:12PM 38.8000 -77.0333 180° South 181 208 2,300 1,800 Climbing Potomac TRACON
05:13PM 38.6379 -77.2658 221° Southwest  Level FlightAware Approximate
05:13PM 38.7667 -77.1000 237° Southwest 259 298 4,500  Level Potomac TRACON
05:14PM 38.5655 -77.3473 221° Southwest  Level FlightAware Approximate
05:14PM 38.7500 -77.1833 256° West 262 302 6,800  Level Potomac TRACON
05:15PM 38.4956 -77.4320 225° Southwest  Level FlightAware Approximate
05:15PM 38.6833 -77.2500 218° Southwest 264 304 9,400  Level Potomac TRACON
05:16PM 38.4276 -77.5193 225° Southwest  Level FlightAware Approximate
05:16PM 38.5983 -77.3450 221° Southwest 280 322 11,400  Level Washington Center
05:17PM 38.5283 -77.4203 220° Southwest 304 350 12,500 1,320 Climbing Washington Center
05:18PM 38.4625 -77.4956 222° Southwest 319 367 14,100 1,380 Climbing Washington Center
05:19PM 38.3903 -77.5783 222° Southwest 331 381 15,300 1,200 Climbing Washington Center
05:20PM 38.3325 -77.6694 231° Southwest 336 387 16,600 1,140 Climbing Washington Center
05:21PM 38.2703 -77.7631 230° Southwest 346 398 17,600 900 Climbing Washington Center
05:22PM 38.2083 -77.8564 230° Southwest 351 404 18,400 840 Climbing Washington Center
05:23PM 38.1458 -77.9547 231° Southwest 351 404 19,300 780 Climbing Washington Center
05:24PM 38.0792 -78.0531 229° Southwest 356 410 20,000 600 Climbing Washington Center
05:25PM 38.0103 -78.1586 230° Southwest 356 410 20,600 780 Climbing Washington Center
05:26PM 37.9314 -78.2350 217° Southwest 361 415 21,600 720 Climbing Washington Center
05:27PM 37.8483 -78.3164 218° Southwest 369 425 22,100 540 Climbing Washington Center
05:28PM 37.7672 -78.3922 216° Southwest 376 433 22,700 540 Climbing Washington Center
05:29PM 37.6842 -78.4706 217° Southwest 376 433 23,200 420 Climbing Washington Center
05:30PM 37.6094 -78.5411 217° Southwest 376 433 23,600 420 Climbing Washington Center
05:31PM 37.5261 -78.6164 216° Southwest 376 433 24,100 480 Climbing Washington Center
05:32PM 37.4406 -78.6967 217° Southwest 376 433 24,600 420 Climbing Washington Center
05:33PM 37.3572 -78.7769 217° Southwest 376 433 25,000 300 Climbing Washington Center
05:34PM 37.2717 -78.8542 216° Southwest 376 433 25,300 420 Climbing Washington Center
05:35PM 37.1775 -78.9414 216° Southwest 381 438 25,900 660 Climbing Washington Center
05:36PM 37.0939 -79.0186 216° Southwest 381 438 26,700 540 Climbing Washington Center
05:37PM 37.0103 -79.0981 217° Southwest 381 438 27,100 360 Climbing Washington Center
05:38PM 36.9244 -79.1747 216° Southwest 376 433 27,500 420 Climbing Washington Center
05:39PM 36.8514 -79.2439 217° Southwest 371 427 28,000 660 Climbing Washington Center
05:40PM 36.7719 -79.3181 217° Southwest 371 427 28,900 660 Climbing Washington Center
05:41PM 36.6883 -79.3917 215° Southwest 371 427 29,400 480 Climbing Washington Center
05:42PM 36.6131 -79.4631 217° Southwest 371 427 29,900 300 Climbing Washington Center
05:43PM 36.5228 -79.5414 215° Southwest 371 427 30,000  Climbing Washington Center
05:45PM 36.3931 -79.6592 216° Southwest 362 417 30,000  Level Atlanta Center
05:46PM 36.3122 -79.7333 216° Southwest 367 422 30,000  Level Atlanta Center
05:47PM 36.2272 -79.8072 215° Southwest 367 422 30,000  Level Atlanta Center
05:48PM 36.1483 -79.8783 216° Southwest 367 422 30,000  Level Atlanta Center
05:49PM 36.0756 -79.9464 217° Southwest 367 422 30,000  Level Atlanta Center
05:50PM 35.9875 -79.9994 206° Southwest 367 422 30,000  Level Atlanta Center
05:51PM 35.8953 -80.0475 203° Southwest 361 415 30,000  Level Atlanta Center
05:52PM 35.8031 -80.0956 203° Southwest 361 415 30,000 -240 Level Atlanta Center
05:53PM 35.7025 -80.1517 204° Southwest 367 422 29,600 -900 Descending Atlanta Center
05:54PM 35.6275 -80.2139 214° Southwest 367 422 28,200 -2,040 Descending Atlanta Center
05:55PM 35.5275 -80.2928 213° Southwest 379 436 25,600 -2,100 Descending Atlanta Center
05:56PM 35.4481 -80.3575 214° Southwest 384 442 24,100 -840 Descending Atlanta Center
05:57PM 35.3564 -80.4303 213° Southwest 384 442 24,000 -60 Descending Atlanta Center
05:58PM 35.2667 -80.5003 213° Southwest 384 442 24,000  Level Atlanta Center
05:59PM 35.1769 -80.5703 213° Southwest 384 442 24,000  Level Atlanta Center
06:00PM 35.0914 -80.6425 215° Southwest 384 442 24,000 -900 Level Atlanta Center
06:01PM 34.9911 -80.7175 212° Southwest 384 442 22,200 -1,020 Descending Atlanta Center
06:02PM 34.9011 -80.7894 213° Southwest 390 449 22,000 -120 Descending Atlanta Center
06:04PM 34.6997 -80.9506 213° Southwest 403 464 22,000  Level Jacksonville Center
06:05PM 34.6089 -81.0183 212° Southwest 398 458 22,000  Level Jacksonville Center
06:06PM 34.5203 -81.0883 213° Southwest 391 450 22,000  Level Jacksonville Center
06:07PM 34.4317 -81.1581 213° Southwest 385 443 22,000  Level Jacksonville Center
06:08PM 34.3408 -81.2278 212° Southwest 390 449 22,000  Level Jacksonville Center
06:09PM 34.2519 -81.2972 213° Southwest 390 449 22,000 -180 Level Jacksonville Center
06:10PM 34.1589 -81.3692 213° Southwest 390 449 21,700 -960 Descending Jacksonville Center
06:11PM 34.0639 -81.4386 211° Southwest 390 449 20,100 -1,800 Descending Jacksonville Center
06:12PM 33.9750 -81.5078 213° Southwest 395 455 18,200 -1,980 Descending Jacksonville Center
06:13PM 33.8900 -81.5742 213° Southwest 385 443 16,200 -2,100 Descending Jacksonville Center
06:14PM 33.8031 -81.6378 211° Southwest 379 436 14,100 -2,100 Descending Jacksonville Center
06:16PM 33.6792 -81.7268 211° Southwest  Level FlightAware Approximate
06:23PM 33.3667 -81.9500 212° Southwest  Level FlightAware Approximate